createdAt,value
2023-11-10T00:01:27.079Z,5.38
2023-11-10T00:03:54.934Z,4.80
2023-11-10T00:06:22.886Z,4.75
2023-11-10T00:08:51.251Z,4.55
2023-11-10T00:11:18.871Z,5.28
2023-11-10T00:13:46.553Z,6.03
2023-11-10T00:16:14.139Z,6.53
2023-11-10T00:18:44.207Z,7.05
2023-11-10T00:21:20.651Z,9.55
2023-11-10T00:23:49.384Z,6.43
2023-11-10T00:26:21.988Z,6.40
2023-11-10T00:28:51.800Z,6.20
2023-11-10T00:31:20.156Z,6.25
2023-11-10T00:33:54.915Z,6.45
2023-11-10T00:36:26.074Z,5.65
2023-11-10T00:38:53.701Z,5.75
2023-11-10T00:41:21.423Z,6.07
2023-11-10T00:43:51.196Z,5.88
2023-11-10T00:46:18.862Z,6.32
2023-11-10T00:48:46.582Z,7.97
2023-11-10T00:51:14.353Z,9.27
2023-11-10T00:53:43.258Z,7.35
2023-11-10T00:56:11.037Z,6.70
2023-11-10T00:58:38.800Z,6.15
2023-11-10T01:01:06.521Z,4.97
2023-11-10T01:03:34.213Z,5.63
2023-11-10T01:06:02.595Z,6.50
2023-11-10T01:08:30.283Z,9.52
2023-11-10T01:10:58.855Z,10.25
2023-11-10T01:13:26.570Z,8.13
2023-11-10T01:15:54.281Z,8.48
2023-11-10T01:18:21.945Z,9.00
2023-11-10T01:20:49.879Z,8.88
2023-11-10T01:23:17.487Z,8.18
2023-11-10T01:25:45.087Z,7.35
2023-11-10T01:28:12.950Z,8.65
2023-11-10T01:30:40.627Z,7.57
2023-11-10T01:33:08.956Z,6.65
2023-11-10T01:35:36.703Z,7.22
2023-11-10T01:38:04.391Z,7.28
2023-11-10T01:40:45.064Z,6.72
2023-11-10T01:43:15.729Z,7.70
2023-11-10T01:45:45.193Z,7.30
2023-11-10T01:48:14.603Z,7.00
2023-11-10T01:50:43.769Z,6.88
2023-11-10T01:53:11.840Z,7.03
2023-11-10T01:55:41.647Z,8.95
2023-11-10T01:58:13.094Z,12.55
2023-11-10T02:00:40.997Z,9.52
2023-11-10T02:03:09.432Z,9.05
2023-11-10T02:05:37.462Z,9.77
2023-11-10T02:08:06.172Z,8.43
2023-11-10T02:10:35.873Z,9.27
2023-11-10T02:13:03.590Z,7.75
2023-11-10T02:15:31.307Z,6.60
2023-11-10T02:17:59.584Z,7.43
2023-11-10T02:20:27.301Z,6.72
2023-11-10T02:22:54.977Z,7.38
2023-11-10T02:25:23.035Z,7.93
2023-11-10T02:27:53.525Z,7.70
2023-11-10T02:30:21.336Z,6.70
2023-11-10T02:32:49.041Z,5.78
2023-11-10T02:35:16.843Z,7.07
2023-11-10T02:37:44.685Z,7.35
2023-11-10T02:40:12.566Z,7.97
2023-11-10T02:42:41.060Z,5.90
2023-11-10T02:45:10.143Z,6.93
2023-11-10T02:47:38.316Z,7.97
2023-11-10T02:50:06.709Z,7.05
2023-11-10T02:52:35.128Z,8.48
2023-11-10T02:55:02.900Z,6.53
2023-11-10T02:57:30.616Z,7.25
2023-11-10T02:59:59.336Z,7.63
2023-11-10T03:02:27.471Z,6.97
2023-11-10T03:04:55.173Z,5.90
2023-11-10T03:07:22.901Z,8.07
2023-11-10T03:09:50.487Z,6.43
2023-11-10T03:12:18.315Z,6.78
2023-11-10T03:14:49.510Z,7.35
2023-11-10T03:17:17.303Z,7.32
2023-11-10T03:19:44.896Z,7.05
2023-11-10T03:22:13.903Z,7.50
2023-11-10T03:24:42.002Z,7.72
2023-11-10T03:27:10.221Z,6.45
2023-11-10T03:29:37.864Z,6.32
2023-11-10T03:32:07.624Z,6.90
2023-11-10T03:34:43.711Z,6.78
2023-11-10T03:37:12.830Z,7.13
2023-11-10T03:39:41.268Z,6.35
2023-11-10T03:42:09.413Z,6.95
2023-11-10T03:44:39.762Z,7.00
2023-11-10T03:47:07.531Z,7.18
2023-11-10T03:49:35.949Z,8.30
2023-11-10T03:52:03.745Z,7.70
2023-11-10T03:54:32.280Z,6.20
2023-11-10T03:57:00.252Z,5.90
2023-11-10T03:59:27.915Z,6.65
2023-11-10T04:01:55.500Z,7.05
2023-11-10T04:04:23.159Z,7.03
2023-11-10T04:06:51.468Z,6.95
2023-11-10T04:09:19.434Z,6.25
2023-11-10T04:11:47.038Z,5.60
2023-11-10T04:14:14.693Z,7.40
2023-11-10T04:16:42.374Z,7.30
2023-11-10T04:19:10.346Z,6.82
2023-11-10T04:21:38.062Z,6.35
2023-11-10T04:24:06.304Z,6.25
2023-11-10T04:26:34.403Z,6.82
2023-11-10T04:29:02.034Z,6.72
2023-11-10T04:31:32.845Z,7.00
2023-11-10T04:34:00.871Z,6.80
2023-11-10T04:36:30.685Z,6.18
2023-11-10T04:38:59.333Z,8.13
2023-11-10T04:41:26.918Z,5.60
2023-11-10T04:43:54.673Z,8.73
2023-11-10T04:46:22.288Z,7.20
2023-11-10T04:48:49.923Z,7.15
2023-11-10T04:51:17.665Z,6.25
2023-11-10T04:53:45.333Z,7.95
2023-11-10T04:56:14.292Z,7.03
2023-11-10T04:58:45.344Z,6.45
2023-11-10T05:01:13.420Z,5.90
2023-11-10T05:03:43.469Z,6.88
2023-11-10T05:06:11.292Z,6.03
2023-11-10T05:08:38.872Z,7.07
2023-11-10T05:11:06.580Z,7.00
2023-11-10T05:13:34.569Z,6.95
2023-11-10T05:16:02.243Z,8.65
2023-11-10T05:21:00.569Z,7.97
2023-11-10T05:23:28.179Z,7.53
2023-11-10T05:25:55.823Z,8.18
2023-11-10T05:28:23.595Z,6.35
2023-11-10T05:30:51.296Z,6.28
2023-11-10T05:33:18.922Z,10.18
2023-11-10T05:35:46.729Z,9.38
2023-11-10T05:38:15.227Z,10.95
2023-11-10T05:40:43.109Z,7.13
2023-11-10T05:43:10.687Z,7.63
2023-11-10T05:45:38.824Z,8.15
2023-11-10T05:48:06.636Z,8.63
2023-11-10T05:50:34.337Z,7.32
2023-11-10T05:53:02.841Z,7.57
2023-11-10T05:55:30.488Z,8.38
2023-11-10T05:57:58.159Z,7.75
2023-11-10T06:00:25.941Z,7.70
2023-11-10T06:02:53.847Z,11.93
2023-11-10T06:05:24.260Z,10.00
2023-11-10T06:07:52.393Z,8.73
2023-11-10T06:10:21.422Z,13.32
2023-11-10T06:12:51.519Z,8.27
2023-11-10T06:15:21.787Z,8.65
2023-11-10T06:17:51.103Z,9.98
2023-11-10T06:20:19.207Z,9.95
2023-11-10T06:22:47.024Z,9.05
2023-11-10T06:25:15.593Z,8.85
2023-11-10T06:27:45.322Z,6.78
2023-11-10T06:30:14.267Z,7.82
2023-11-10T06:32:42.010Z,9.15
2023-11-10T06:35:10.752Z,8.75
2023-11-10T06:37:38.462Z,8.02
2023-11-10T06:40:07.022Z,8.70
2023-11-10T06:42:35.431Z,10.40
2023-11-10T06:45:04.277Z,10.23
2023-11-10T06:47:32.377Z,8.57
2023-11-10T06:50:02.573Z,8.85
2023-11-10T06:52:30.309Z,8.73
2023-11-10T06:54:59.122Z,11.00
2023-11-10T06:57:30.158Z,9.15
2023-11-10T06:59:57.783Z,8.48
2023-11-10T07:02:26.310Z,6.95
2023-11-10T07:04:54.107Z,8.18
2023-11-10T07:07:23.021Z,9.63
2023-11-10T07:09:50.612Z,7.50
2023-11-10T07:12:18.450Z,6.53
2023-11-10T07:14:46.270Z,8.27
2023-11-10T07:17:16.709Z,8.65
2023-11-10T07:19:45.430Z,9.98
2023-11-10T07:22:13.091Z,11.00
2023-11-10T07:24:41.185Z,13.13
2023-11-10T07:27:09.240Z,11.27
2023-11-10T07:29:37.833Z,11.60
2023-11-10T07:32:05.760Z,14.32
2023-11-10T07:34:33.673Z,11.02
2023-11-10T07:37:01.434Z,9.60
2023-11-10T07:39:31.470Z,7.60
2023-11-10T07:41:59.325Z,8.18
2023-11-10T07:44:27.019Z,8.70
2023-11-10T07:46:54.981Z,9.10
2023-11-10T07:49:22.585Z,8.63
2023-11-10T07:51:55.263Z,8.60
2023-11-10T07:56:54.622Z,7.32
2023-11-10T07:59:22.758Z,9.25
2023-11-10T08:01:50.369Z,8.70
2023-11-10T08:04:18.505Z,8.45
2023-11-10T08:06:46.306Z,9.07
2023-11-10T08:09:15.416Z,9.30
2023-11-10T08:11:52.360Z,8.43
2023-11-10T08:14:23.101Z,7.55
2023-11-10T08:16:50.960Z,10.18
2023-11-10T08:19:18.965Z,10.88
2023-11-10T08:21:47.012Z,10.32
2023-11-10T08:24:15.374Z,8.57
2023-11-10T08:26:43.848Z,7.60
2023-11-10T08:29:12.400Z,8.07
2023-11-10T08:31:40.797Z,6.93
2023-11-10T08:34:08.900Z,7.20
2023-11-10T08:36:36.635Z,8.52
2023-11-10T08:39:04.555Z,8.98
2023-11-10T08:41:32.658Z,7.28
2023-11-10T08:44:00.518Z,7.18
2023-11-10T08:46:28.196Z,7.50
2023-11-10T08:48:56.065Z,7.15
2023-11-10T08:51:23.909Z,6.25
2023-11-10T08:53:51.495Z,7.05
2023-11-10T08:56:19.159Z,8.02
2023-11-10T08:58:46.949Z,7.53
2023-11-10T09:01:14.646Z,7.47
2023-11-10T09:03:42.312Z,6.72
2023-11-10T09:06:11.002Z,8.60
2023-11-10T09:08:38.587Z,7.75
2023-11-10T09:11:06.215Z,7.28
2023-11-10T09:13:34.159Z,8.93
2023-11-10T09:16:03.053Z,8.70
2023-11-10T09:18:30.849Z,9.38
2023-11-10T09:20:58.481Z,7.28
2023-11-10T09:23:30.141Z,7.85
2023-11-10T09:25:58.334Z,7.67
2023-11-10T09:28:26.441Z,8.43
2023-11-10T09:30:55.218Z,8.68
2023-11-10T09:33:25.650Z,8.90
2023-11-10T09:35:53.582Z,7.20
2023-11-10T09:38:21.506Z,6.88
2023-11-10T09:40:49.344Z,6.53
2023-11-10T09:43:17.264Z,7.05
2023-11-10T09:45:51.696Z,7.03
2023-11-10T09:48:20.998Z,6.57
2023-11-10T09:50:51.653Z,7.30
2023-11-10T09:53:20.272Z,6.15
2023-11-10T09:55:48.336Z,7.53
2023-11-10T09:58:16.744Z,6.40
2023-11-10T10:00:45.065Z,7.15
2023-11-10T10:03:14.562Z,5.35
2023-11-10T10:05:42.445Z,6.25
2023-11-10T10:08:10.123Z,7.93
2023-11-10T10:10:41.992Z,7.57
2023-11-10T10:13:09.715Z,7.07
2023-11-10T10:15:39.540Z,5.78
2023-11-10T10:18:10.347Z,5.63
2023-11-10T10:20:41.741Z,5.75
2023-11-10T10:23:13.064Z,6.85
2023-11-10T10:25:41.258Z,6.55
2023-11-10T10:28:09.221Z,5.15
2023-11-10T10:30:38.285Z,4.65
2023-11-10T10:33:07.121Z,4.72
2023-11-10T10:35:34.791Z,4.80
2023-11-10T10:38:06.201Z,5.13
2023-11-10T10:40:37.496Z,4.57
2023-11-10T10:43:08.777Z,5.00
2023-11-10T10:45:38.686Z,4.20
2023-11-10T10:48:06.798Z,5.20
2023-11-10T10:50:35.220Z,5.35
2023-11-10T10:53:07.146Z,6.70
2023-11-10T10:55:36.686Z,5.60
2023-11-10T10:58:05.040Z,5.70
2023-11-10T11:00:34.054Z,4.70
2023-11-10T11:03:22.325Z,5.10
2023-11-10T11:06:07.815Z,4.95
2023-11-10T11:09:11.428Z,5.68
2023-11-10T11:11:57.935Z,6.30
2023-11-10T11:14:38.335Z,3.97
2023-11-10T11:17:33.175Z,6.88
2023-11-10T11:20:01.824Z,5.15
2023-11-10T11:22:29.473Z,6.03
2023-11-10T11:25:09.878Z,5.85
2023-11-10T11:27:39.504Z,5.85
2023-11-10T11:30:10.077Z,4.75
2023-11-10T11:32:45.169Z,4.38
2023-11-10T11:35:16.963Z,5.45
2023-11-10T11:37:46.141Z,5.07
2023-11-10T11:40:13.963Z,6.45
2023-11-10T11:42:42.764Z,6.55
2023-11-10T11:45:15.557Z,5.75
2023-11-10T11:50:12.537Z,6.25
2023-11-10T11:52:41.532Z,4.90
2023-11-10T11:55:09.779Z,5.15
2023-11-10T11:57:38.854Z,4.68
2023-11-10T12:00:08.676Z,5.53
2023-11-10T12:02:41.136Z,5.47
2023-11-10T12:05:14.898Z,4.18
2023-11-10T12:07:44.047Z,5.65
2023-11-10T12:10:13.096Z,5.57
2023-11-10T12:12:41.928Z,5.82
2023-11-10T12:15:11.265Z,5.00
2023-11-10T12:17:39.120Z,4.68
2023-11-10T12:20:10.605Z,5.00
2023-11-10T12:22:38.248Z,4.20
2023-11-10T12:25:10.969Z,5.78
2023-11-10T12:27:39.190Z,5.38
2023-11-10T12:30:07.799Z,4.53
2023-11-10T12:32:42.919Z,4.47
2023-11-10T12:35:13.287Z,4.15
2023-11-10T12:37:41.029Z,5.80
2023-11-10T12:40:13.892Z,6.88
2023-11-10T12:42:41.946Z,5.65
2023-11-10T12:45:11.648Z,5.47
2023-11-10T12:47:44.917Z,4.22
2023-11-10T12:50:17.392Z,5.78
2023-11-10T12:52:45.282Z,8.93
2023-11-10T12:55:13.561Z,6.35
2023-11-10T12:57:41.212Z,6.55
2023-11-10T13:00:14.669Z,6.00
2023-11-10T13:02:45.467Z,5.65
2023-11-10T13:05:15.749Z,6.85
2023-11-10T13:07:44.788Z,7.28
2023-11-10T13:10:12.602Z,8.57
2023-11-10T13:12:41.376Z,8.65
2023-11-10T13:15:09.779Z,8.10
2023-11-10T13:17:40.507Z,10.55
2023-11-10T13:20:11.974Z,12.75
2023-11-10T13:22:40.037Z,16.38
2023-11-10T13:25:08.524Z,13.85
2023-11-10T13:27:36.255Z,8.60
2023-11-10T13:30:04.640Z,9.80
2023-11-10T13:32:32.872Z,11.73
2023-11-10T13:35:05.976Z,8.77
2023-11-10T13:37:33.720Z,5.25
2023-11-10T13:40:01.685Z,6.00
2023-11-10T13:42:29.509Z,5.32
2023-11-10T13:44:57.129Z,4.82
2023-11-10T13:47:25.013Z,5.18
2023-11-10T13:49:52.625Z,4.75
2023-11-10T13:52:21.331Z,5.72
2023-11-10T13:54:49.055Z,6.45
2023-11-10T13:57:16.777Z,6.55
2023-11-10T13:59:44.436Z,5.15
2023-11-10T14:02:12.325Z,5.25
2023-11-10T14:04:40.004Z,5.63
2023-11-10T14:07:08.528Z,7.88
2023-11-10T14:09:36.567Z,7.10
2023-11-10T14:12:04.510Z,5.32
2023-11-10T14:14:35.948Z,5.85
2023-11-10T14:17:04.209Z,6.60
2023-11-10T14:19:31.869Z,11.95
2023-11-10T14:21:59.556Z,16.55
2023-11-10T14:24:27.701Z,13.93
2023-11-10T14:26:56.432Z,9.07
2023-11-10T14:29:24.072Z,8.98
2023-11-10T14:31:51.840Z,8.88
2023-11-10T14:34:19.429Z,9.98
2023-11-10T14:36:47.839Z,15.20
2023-11-10T14:39:18.238Z,14.10
2023-11-10T14:41:47.749Z,13.50
2023-11-10T14:44:16.262Z,10.23
2023-11-10T14:46:44.422Z,10.35
2023-11-10T14:49:13.944Z,17.95
2023-11-10T14:51:46.921Z,13.02
2023-11-10T14:54:14.542Z,7.70
2023-11-10T14:56:42.588Z,10.15
2023-11-10T14:59:11.311Z,10.75
2023-11-10T15:01:40.435Z,10.60
2023-11-10T15:04:08.446Z,10.23
2023-11-10T15:06:37.793Z,12.70
2023-11-10T15:09:08.024Z,10.23
2023-11-10T15:11:38.069Z,14.43
2023-11-10T15:14:08.220Z,13.43
2023-11-10T15:16:38.038Z,10.32
2023-11-10T15:19:07.433Z,9.63
2023-11-10T15:21:35.176Z,10.80
2023-11-10T15:24:02.856Z,11.68
2023-11-10T15:26:31.212Z,11.05
2023-11-10T15:28:58.902Z,9.90
2023-11-10T15:31:30.766Z,10.77
2023-11-10T15:33:58.475Z,11.05
2023-11-10T15:36:30.401Z,9.75
2023-11-10T15:39:06.279Z,10.20
2023-11-10T15:41:44.794Z,10.32
2023-11-10T15:44:12.984Z,10.77
2023-11-10T15:46:43.386Z,12.48
2023-11-10T15:49:12.298Z,33.42
2023-11-10T15:51:55.583Z,46.03
2023-11-10T15:54:28.544Z,14.45
2023-11-10T15:57:01.071Z,8.32
2023-11-10T15:59:29.354Z,6.90
2023-11-10T16:01:58.325Z,7.40
2023-11-10T16:04:26.314Z,10.60
2023-11-10T16:06:54.414Z,7.10
2023-11-10T16:09:25.144Z,4.63
2023-11-10T16:11:54.343Z,5.22
2023-11-10T16:14:22.434Z,5.70
2023-11-10T16:16:51.761Z,7.45
2023-11-10T16:19:21.920Z,9.82
2023-11-10T16:21:49.839Z,6.43
2023-11-10T16:24:17.564Z,6.30
2023-11-10T16:26:45.632Z,5.80
2023-11-10T16:29:13.735Z,5.07
2023-11-10T16:31:44.179Z,5.53
2023-11-10T16:34:12.303Z,4.60
2023-11-10T16:36:40.085Z,5.30
2023-11-10T16:39:08.758Z,5.80
2023-11-10T16:41:37.859Z,4.82
2023-11-10T16:44:07.396Z,5.78
2023-11-10T16:46:35.537Z,7.53
2023-11-10T16:49:03.388Z,5.65
2023-11-10T16:51:31.869Z,6.20
2023-11-10T16:53:59.979Z,6.68
2023-11-10T16:56:30.744Z,7.78
2023-11-10T16:58:58.864Z,19.58
2023-11-10T17:01:27.784Z,38.85
2023-11-10T17:03:56.256Z,18.85
2023-11-10T17:06:24.403Z,11.52
2023-11-10T17:08:52.797Z,14.27
2023-11-10T17:11:20.721Z,6.30
2023-11-10T17:13:48.462Z,4.38
2023-11-10T17:16:17.083Z,3.92
2023-11-10T17:18:45.275Z,6.70
2023-11-10T17:21:13.966Z,6.50
2023-11-10T17:23:41.703Z,11.45
2023-11-10T17:26:09.579Z,34.20
2023-11-10T17:28:37.299Z,33.92
2023-11-10T17:31:05.114Z,16.90
2023-11-10T17:33:34.189Z,25.63
2023-11-10T17:36:02.699Z,27.23
2023-11-10T17:38:30.696Z,36.28
2023-11-10T17:41:02.563Z,26.98
2023-11-10T17:43:30.840Z,13.13
2023-11-10T17:45:58.563Z,11.35
2023-11-10T17:48:29.808Z,9.52
2023-11-10T17:51:03.922Z,5.78
2023-11-10T17:53:33.927Z,7.03
2023-11-10T17:56:01.781Z,7.75
2023-11-10T17:58:30.684Z,10.65
2023-11-10T18:00:59.997Z,14.73
2023-11-10T18:03:27.881Z,10.95
2023-11-10T18:05:55.580Z,8.18
2023-11-10T18:08:23.212Z,7.47
2023-11-10T18:10:53.877Z,8.95
2023-11-10T18:13:21.552Z,7.13
2023-11-10T18:15:49.416Z,5.93
2023-11-10T18:18:18.016Z,5.78
2023-11-10T18:20:48.104Z,5.43
2023-11-10T18:23:16.778Z,5.40
2023-11-10T18:25:46.119Z,4.80
2023-11-10T18:28:15.300Z,5.65
2023-11-10T18:30:44.260Z,6.25
2023-11-10T18:33:13.753Z,7.28
2023-11-10T18:35:42.206Z,5.47
2023-11-10T18:38:10.983Z,5.40
2023-11-10T18:40:41.182Z,4.60
2023-11-10T18:43:11.251Z,8.70
2023-11-10T18:45:44.351Z,7.43
2023-11-10T18:48:13.906Z,6.85
2023-11-10T18:50:43.444Z,6.15
2023-11-10T18:53:18.572Z,5.35
2023-11-10T18:55:48.179Z,6.18
2023-11-10T18:58:17.635Z,5.20
2023-11-10T19:00:46.630Z,5.35
2023-11-10T19:03:15.884Z,5.43
2023-11-10T19:05:45.238Z,5.53
2023-11-10T19:08:14.608Z,5.07
2023-11-10T19:10:43.788Z,4.38
2023-11-10T19:13:13.179Z,5.35
2023-11-10T19:15:42.422Z,4.78
2023-11-10T19:18:13.465Z,5.07
2023-11-10T19:20:43.836Z,5.35
2023-11-10T19:23:13.860Z,9.25
2023-11-10T19:25:45.018Z,6.97
2023-11-10T19:28:14.968Z,6.75
2023-11-10T19:30:44.443Z,8.30
2023-11-10T19:33:13.713Z,9.23
2023-11-10T19:35:43.291Z,7.70
2023-11-10T19:38:13.304Z,9.57
2023-11-10T19:40:43.567Z,8.07
2023-11-10T19:43:15.563Z,7.70
2023-11-10T19:45:45.387Z,7.25
2023-11-10T19:48:15.663Z,7.18
2023-11-10T19:50:45.640Z,7.78
2023-11-10T19:53:14.888Z,6.65
2023-11-10T19:55:44.591Z,6.20
2023-11-10T20:03:18.979Z,6.10
2023-11-10T20:05:48.320Z,5.85
2023-11-10T20:08:17.051Z,6.45
2023-11-10T20:10:47.442Z,5.10
2023-11-10T20:13:17.229Z,5.65
2023-11-10T20:15:46.262Z,6.22
2023-11-10T20:18:15.564Z,4.97
2023-11-10T20:20:45.760Z,5.32
2023-11-10T20:23:15.170Z,5.60
2023-11-10T20:25:45.870Z,5.35
2023-11-10T20:28:14.518Z,5.28
2023-11-10T20:30:45.515Z,5.97
2023-11-10T20:33:15.766Z,5.05
2023-11-10T20:35:47.003Z,5.57
2023-11-10T20:38:17.474Z,4.93
2023-11-10T20:40:46.944Z,5.00
2023-11-10T20:43:16.387Z,6.20
2023-11-10T20:45:46.088Z,6.65
2023-11-10T20:48:15.457Z,5.10
2023-11-10T20:50:46.054Z,4.78
2023-11-10T20:53:15.755Z,5.88
2023-11-10T20:55:47.636Z,5.57
2023-11-10T20:58:17.713Z,5.28
2023-11-10T21:00:46.389Z,5.75
2023-11-10T21:03:14.414Z,4.97
2023-11-10T21:05:48.088Z,4.38
2023-11-10T21:08:16.403Z,4.30
2023-11-10T21:10:44.744Z,5.40
2023-11-10T21:13:15.839Z,4.75
2023-11-10T21:15:47.472Z,5.43
2023-11-10T21:18:19.928Z,5.35
2023-11-10T21:20:48.592Z,4.63
2023-11-10T21:23:16.863Z,4.65
2023-11-10T21:25:48.370Z,5.10
2023-11-10T21:28:16.203Z,4.40
2023-11-10T21:30:48.528Z,5.50
2023-11-10T21:33:19.320Z,4.03
2023-11-10T21:35:47.301Z,4.20
2023-11-10T21:38:14.928Z,4.50
2023-11-10T21:40:44.304Z,4.25
2023-11-10T21:43:13.009Z,4.22
2023-11-10T21:45:43.652Z,3.72
2023-11-10T21:48:13.671Z,3.67
2023-11-10T21:50:47.194Z,3.35
2023-11-10T21:53:15.480Z,3.13
2023-11-10T21:55:45.493Z,3.53
2023-11-10T21:58:14.659Z,3.53
2023-11-10T22:00:42.868Z,3.17
2023-11-10T22:03:11.023Z,3.17
2023-11-10T22:05:39.754Z,3.10
2023-11-10T22:08:07.533Z,3.00
2023-11-10T22:10:36.147Z,3.10
2023-11-10T22:13:04.107Z,2.70
2023-11-10T22:15:32.179Z,2.65
2023-11-10T22:18:00.349Z,2.75
2023-11-10T22:20:28.910Z,2.97
2023-11-10T22:22:56.567Z,3.38
2023-11-10T22:25:24.246Z,4.03
2023-11-10T22:27:51.973Z,4.20
2023-11-10T22:30:19.696Z,3.47
2023-11-10T22:32:47.313Z,2.65
2023-11-10T22:35:15.046Z,3.63
2023-11-10T22:37:44.351Z,3.50
2023-11-10T22:40:12.835Z,3.72
2023-11-10T22:42:42.487Z,3.58
2023-11-10T22:45:14.535Z,4.07
2023-11-10T22:47:44.564Z,3.78
2023-11-10T22:50:12.611Z,3.28
2023-11-10T22:52:40.342Z,3.88
2023-11-10T22:55:08.352Z,2.92
2023-11-10T22:57:36.976Z,3.58
2023-11-10T23:00:27.709Z,3.90
2023-11-10T23:02:56.709Z,3.42
2023-11-10T23:05:24.803Z,3.60
2023-11-10T23:07:52.606Z,3.55
2023-11-10T23:10:20.480Z,3.33
2023-11-10T23:12:49.276Z,3.78
2023-11-10T23:15:18.900Z,3.10
2023-11-10T23:17:47.351Z,4.18
2023-11-10T23:20:26.165Z,4.15
2023-11-10T23:22:58.741Z,3.70
2023-11-10T23:25:26.664Z,5.00
2023-11-10T23:27:54.370Z,3.90
2023-11-10T23:30:23.089Z,3.40
2023-11-10T23:32:52.764Z,3.88
2023-11-10T23:35:21.214Z,3.67
2023-11-10T23:37:49.436Z,4.25
2023-11-10T23:40:17.134Z,4.78
2023-11-10T23:42:44.870Z,3.95
2023-11-10T23:45:13.639Z,5.05
2023-11-10T23:47:41.475Z,5.00
2023-11-10T23:50:09.503Z,4.25
2023-11-10T23:52:39.316Z,4.60
2023-11-10T23:55:08.090Z,4.70
2023-11-10T23:57:39.088Z,4.72
